sensor_id;sensor_type;location;lat;lon;timestamp;P1;durP1;ratioP1;P2;durP2;ratioP2
84897;SDS011;75162;42.120;21.734;2024-02-16T00:00:30;28.92;;;13.65;;
84897;SDS011;75162;42.120;21.734;2024-02-16T00:02:56;34.08;;;14.63;;
84897;SDS011;75162;42.120;21.734;2024-02-16T00:05:24;30.40;;;13.57;;
84897;SDS011;75162;42.120;21.734;2024-02-16T00:07:50;27.48;;;12.90;;
84897;SDS011;75162;42.120;21.734;2024-02-16T00:10:17;28.45;;;12.50;;
84897;SDS011;75162;42.120;21.734;2024-02-16T00:12:45;26.25;;;13.00;;
84897;SDS011;75162;42.120;21.734;2024-02-16T00:15:11;28.08;;;13.45;;
84897;SDS011;75162;42.120;21.734;2024-02-16T00:17:37;21.23;;;11.15;;
84897;SDS011;75162;42.120;21.734;2024-02-16T00:20:04;21.50;;;10.25;;
84897;SDS011;75162;42.120;21.734;2024-02-16T00:22:32;21.70;;;11.57;;
84897;SDS011;75162;42.120;21.734;2024-02-16T00:24:59;21.17;;;11.10;;
84897;SDS011;75162;42.120;21.734;2024-02-16T00:27:25;21.42;;;11.65;;
84897;SDS011;75162;42.120;21.734;2024-02-16T00:29:52;22.00;;;11.50;;
84897;SDS011;75162;42.120;21.734;2024-02-16T00:32:19;22.98;;;12.13;;
84897;SDS011;75162;42.120;21.734;2024-02-16T00:34:45;23.80;;;11.43;;
84897;SDS011;75162;42.120;21.734;2024-02-16T00:37:11;21.85;;;11.75;;
84897;SDS011;75162;42.120;21.734;2024-02-16T00:39:40;25.40;;;11.60;;
84897;SDS011;75162;42.120;21.734;2024-02-16T00:42:07;26.00;;;12.07;;
84897;SDS011;75162;42.120;21.734;2024-02-16T00:44:33;29.23;;;13.38;;
84897;SDS011;75162;42.120;21.734;2024-02-16T00:46:59;24.83;;;13.02;;
84897;SDS011;75162;42.120;21.734;2024-02-16T00:49:25;31.15;;;13.60;;
84897;SDS011;75162;42.120;21.734;2024-02-16T00:51:52;30.65;;;13.27;;
84897;SDS011;75162;42.120;21.734;2024-02-16T00:54:18;28.88;;;13.30;;
84897;SDS011;75162;42.120;21.734;2024-02-16T00:56:45;28.15;;;12.73;;
84897;SDS011;75162;42.120;21.734;2024-02-16T00:59:12;34.45;;;13.63;;
84897;SDS011;75162;42.120;21.734;2024-02-16T01:01:38;29.73;;;13.90;;
84897;SDS011;75162;42.120;21.734;2024-02-16T01:04:04;34.53;;;14.32;;
84897;SDS011;75162;42.120;21.734;2024-02-16T01:06:32;31.70;;;13.23;;
84897;SDS011;75162;42.120;21.734;2024-02-16T01:08:58;27.30;;;13.20;;
84897;SDS011;75162;42.120;21.734;2024-02-16T01:11:24;27.65;;;13.00;;
84897;SDS011;75162;42.120;21.734;2024-02-16T01:13:50;26.65;;;13.48;;
84897;SDS011;75162;42.120;21.734;2024-02-16T01:16:16;29.10;;;13.85;;
84897;SDS011;75162;42.120;21.734;2024-02-16T01:18:43;28.85;;;13.45;;
84897;SDS011;75162;42.120;21.734;2024-02-16T01:21:10;27.52;;;13.00;;
84897;SDS011;75162;42.120;21.734;2024-02-16T01:23:36;29.00;;;13.18;;
84897;SDS011;75162;42.120;21.734;2024-02-16T01:26:02;27.77;;;12.55;;
84897;SDS011;75162;42.120;21.734;2024-02-16T01:28:28;25.05;;;12.98;;
84897;SDS011;75162;42.120;21.734;2024-02-16T01:30:55;25.35;;;12.88;;
84897;SDS011;75162;42.120;21.734;2024-02-16T01:33:24;28.98;;;13.73;;
84897;SDS011;75162;42.120;21.734;2024-02-16T01:35:50;28.73;;;13.00;;
84897;SDS011;75162;42.120;21.734;2024-02-16T01:38:16;26.98;;;12.55;;
84897;SDS011;75162;42.120;21.734;2024-02-16T01:40:42;25.65;;;12.18;;
84897;SDS011;75162;42.120;21.734;2024-02-16T01:43:09;24.83;;;13.60;;
84897;SDS011;75162;42.120;21.734;2024-02-16T01:45:35;28.48;;;14.18;;
84897;SDS011;75162;42.120;21.734;2024-02-16T01:48:01;33.20;;;15.10;;
84897;SDS011;75162;42.120;21.734;2024-02-16T01:50:27;28.10;;;13.35;;
84897;SDS011;75162;42.120;21.734;2024-02-16T01:52:54;29.05;;;14.68;;
84897;SDS011;75162;42.120;21.734;2024-02-16T01:55:21;24.75;;;14.23;;
84897;SDS011;75162;42.120;21.734;2024-02-16T01:57:47;29.25;;;13.35;;
84897;SDS011;75162;42.120;21.734;2024-02-16T02:00:14;28.85;;;14.32;;
84897;SDS011;75162;42.120;21.734;2024-02-16T02:02:43;28.92;;;14.98;;
84897;SDS011;75162;42.120;21.734;2024-02-16T02:05:10;32.13;;;15.43;;
84897;SDS011;75162;42.120;21.734;2024-02-16T02:07:37;27.23;;;14.75;;
84897;SDS011;75162;42.120;21.734;2024-02-16T02:10:03;28.45;;;14.30;;
84897;SDS011;75162;42.120;21.734;2024-02-16T02:12:29;25.95;;;14.18;;
84897;SDS011;75162;42.120;21.734;2024-02-16T02:14:55;32.38;;;15.23;;
84897;SDS011;75162;42.120;21.734;2024-02-16T02:17:21;27.73;;;15.10;;
84897;SDS011;75162;42.120;21.734;2024-02-16T02:19:48;30.20;;;14.05;;
84897;SDS011;75162;42.120;21.734;2024-02-16T02:22:18;28.92;;;13.68;;
84897;SDS011;75162;42.120;21.734;2024-02-16T02:24:45;33.25;;;16.27;;
84897;SDS011;75162;42.120;21.734;2024-02-16T02:27:11;31.90;;;15.18;;
84897;SDS011;75162;42.120;21.734;2024-02-16T02:29:38;28.70;;;14.13;;
84897;SDS011;75162;42.120;21.734;2024-02-16T02:32:04;30.48;;;13.88;;
84897;SDS011;75162;42.120;21.734;2024-02-16T02:34:30;31.70;;;14.65;;
84897;SDS011;75162;42.120;21.734;2024-02-16T02:36:57;32.42;;;15.60;;
84897;SDS011;75162;42.120;21.734;2024-02-16T02:39:23;35.53;;;16.13;;
84897;SDS011;75162;42.120;21.734;2024-02-16T02:41:49;31.80;;;15.32;;
84897;SDS011;75162;42.120;21.734;2024-02-16T02:44:15;32.45;;;15.48;;
84897;SDS011;75162;42.120;21.734;2024-02-16T02:46:41;30.38;;;15.45;;
84897;SDS011;75162;42.120;21.734;2024-02-16T02:49:07;38.80;;;16.90;;
84897;SDS011;75162;42.120;21.734;2024-02-16T02:51:33;36.25;;;17.08;;
84897;SDS011;75162;42.120;21.734;2024-02-16T02:54:00;39.72;;;17.90;;
84897;SDS011;75162;42.120;21.734;2024-02-16T02:56:26;31.67;;;16.50;;
84897;SDS011;75162;42.120;21.734;2024-02-16T02:58:52;40.08;;;17.15;;
84897;SDS011;75162;42.120;21.734;2024-02-16T03:01:18;33.10;;;16.27;;
84897;SDS011;75162;42.120;21.734;2024-02-16T03:03:47;34.50;;;17.20;;
84897;SDS011;75162;42.120;21.734;2024-02-16T03:06:17;39.88;;;18.10;;
84897;SDS011;75162;42.120;21.734;2024-02-16T03:08:43;39.67;;;16.70;;
84897;SDS011;75162;42.120;21.734;2024-02-16T03:11:09;37.15;;;17.15;;
84897;SDS011;75162;42.120;21.734;2024-02-16T03:13:35;36.22;;;16.75;;
84897;SDS011;75162;42.120;21.734;2024-02-16T03:16:02;42.63;;;17.38;;
84897;SDS011;75162;42.120;21.734;2024-02-16T03:18:29;39.45;;;18.00;;
84897;SDS011;75162;42.120;21.734;2024-02-16T03:20:55;38.65;;;17.25;;
84897;SDS011;75162;42.120;21.734;2024-02-16T03:23:22;32.00;;;16.13;;
84897;SDS011;75162;42.120;21.734;2024-02-16T03:25:48;29.15;;;15.15;;
84897;SDS011;75162;42.120;21.734;2024-02-16T03:28:14;33.17;;;16.63;;
84897;SDS011;75162;42.120;21.734;2024-02-16T03:30:43;33.30;;;16.60;;
84897;SDS011;75162;42.120;21.734;2024-02-16T03:33:10;33.55;;;17.58;;
84897;SDS011;75162;42.120;21.734;2024-02-16T03:35:36;38.30;;;18.20;;
84897;SDS011;75162;42.120;21.734;2024-02-16T03:38:03;38.72;;;17.67;;
84897;SDS011;75162;42.120;21.734;2024-02-16T03:40:30;44.67;;;18.33;;
84897;SDS011;75162;42.120;21.734;2024-02-16T03:42:56;40.25;;;18.08;;
84897;SDS011;75162;42.120;21.734;2024-02-16T03:45:23;43.03;;;17.80;;
84897;SDS011;75162;42.120;21.734;2024-02-16T03:47:49;39.92;;;18.83;;
84897;SDS011;75162;42.120;21.734;2024-02-16T03:50:19;39.78;;;19.40;;
84897;SDS011;75162;42.120;21.734;2024-02-16T03:52:45;43.67;;;18.52;;
84897;SDS011;75162;42.120;21.734;2024-02-16T03:55:11;41.85;;;19.95;;
84897;SDS011;75162;42.120;21.734;2024-02-16T03:57:39;43.13;;;18.58;;
84897;SDS011;75162;42.120;21.734;2024-02-16T04:00:05;42.97;;;18.80;;
84897;SDS011;75162;42.120;21.734;2024-02-16T04:02:32;39.60;;;19.17;;
84897;SDS011;75162;42.120;21.734;2024-02-16T04:04:58;45.78;;;19.35;;
84897;SDS011;75162;42.120;21.734;2024-02-16T04:07:24;49.75;;;21.52;;
84897;SDS011;75162;42.120;21.734;2024-02-16T04:09:53;40.05;;;19.83;;
84897;SDS011;75162;42.120;21.734;2024-02-16T04:12:19;47.70;;;19.77;;
84897;SDS011;75162;42.120;21.734;2024-02-16T04:14:45;50.53;;;20.67;;
84897;SDS011;75162;42.120;21.734;2024-02-16T04:17:11;41.92;;;19.52;;
84897;SDS011;75162;42.120;21.734;2024-02-16T04:19:38;38.50;;;20.08;;
84897;SDS011;75162;42.120;21.734;2024-02-16T04:22:04;47.60;;;20.65;;
84897;SDS011;75162;42.120;21.734;2024-02-16T04:24:30;47.72;;;20.73;;
84897;SDS011;75162;42.120;21.734;2024-02-16T04:26:56;52.00;;;22.55;;
84897;SDS011;75162;42.120;21.734;2024-02-16T04:29:22;54.53;;;22.65;;
84897;SDS011;75162;42.120;21.734;2024-02-16T04:31:48;50.20;;;21.08;;
84897;SDS011;75162;42.120;21.734;2024-02-16T04:34:14;48.38;;;23.17;;
84897;SDS011;75162;42.120;21.734;2024-02-16T04:36:41;47.67;;;21.33;;
84897;SDS011;75162;42.120;21.734;2024-02-16T04:39:08;52.58;;;23.27;;
84897;SDS011;75162;42.120;21.734;2024-02-16T04:44:05;45.47;;;20.23;;
84897;SDS011;75162;42.120;21.734;2024-02-16T04:46:31;44.15;;;20.88;;
84897;SDS011;75162;42.120;21.734;2024-02-16T04:48:58;55.20;;;22.30;;
84897;SDS011;75162;42.120;21.734;2024-02-16T04:51:24;45.03;;;20.15;;
84897;SDS011;75162;42.120;21.734;2024-02-16T04:53:50;51.95;;;20.75;;
84897;SDS011;75162;42.120;21.734;2024-02-16T04:56:16;47.50;;;22.60;;
84897;SDS011;75162;42.120;21.734;2024-02-16T04:58:42;45.38;;;20.38;;
84897;SDS011;75162;42.120;21.734;2024-02-16T05:01:09;47.40;;;20.15;;
84897;SDS011;75162;42.120;21.734;2024-02-16T05:03:35;50.28;;;20.92;;
84897;SDS011;75162;42.120;21.734;2024-02-16T05:06:02;50.08;;;22.60;;
84897;SDS011;75162;42.120;21.734;2024-02-16T05:08:28;48.10;;;22.40;;
84897;SDS011;75162;42.120;21.734;2024-02-16T05:10:54;56.42;;;26.15;;
84897;SDS011;75162;42.120;21.734;2024-02-16T05:13:20;49.35;;;23.23;;
84897;SDS011;75162;42.120;21.734;2024-02-16T05:15:47;51.75;;;24.00;;
84897;SDS011;75162;42.120;21.734;2024-02-16T05:18:14;58.05;;;24.25;;
84897;SDS011;75162;42.120;21.734;2024-02-16T05:20:40;52.47;;;24.42;;
84897;SDS011;75162;42.120;21.734;2024-02-16T05:23:06;45.47;;;22.35;;
84897;SDS011;75162;42.120;21.734;2024-02-16T05:25:32;46.75;;;22.27;;
84897;SDS011;75162;42.120;21.734;2024-02-16T05:27:58;47.90;;;23.45;;
84897;SDS011;75162;42.120;21.734;2024-02-16T05:30:26;44.97;;;22.30;;
84897;SDS011;75162;42.120;21.734;2024-02-16T05:32:53;45.80;;;21.52;;
84897;SDS011;75162;42.120;21.734;2024-02-16T05:35:23;48.72;;;21.50;;
84897;SDS011;75162;42.120;21.734;2024-02-16T05:37:54;45.15;;;19.65;;
84897;SDS011;75162;42.120;21.734;2024-02-16T05:40:20;48.78;;;21.08;;
84897;SDS011;75162;42.120;21.734;2024-02-16T05:42:49;43.30;;;19.88;;
84897;SDS011;75162;42.120;21.734;2024-02-16T05:45:15;43.80;;;21.17;;
84897;SDS011;75162;42.120;21.734;2024-02-16T05:47:41;48.03;;;21.98;;
84897;SDS011;75162;42.120;21.734;2024-02-16T05:50:08;55.50;;;23.58;;
84897;SDS011;75162;42.120;21.734;2024-02-16T05:52:35;54.65;;;25.00;;
84897;SDS011;75162;42.120;21.734;2024-02-16T05:55:01;51.83;;;23.45;;
84897;SDS011;75162;42.120;21.734;2024-02-16T05:57:29;56.28;;;25.67;;
84897;SDS011;75162;42.120;21.734;2024-02-16T05:59:55;48.17;;;22.17;;
84897;SDS011;75162;42.120;21.734;2024-02-16T06:02:21;44.67;;;21.58;;
84897;SDS011;75162;42.120;21.734;2024-02-16T06:04:51;44.78;;;20.27;;
84897;SDS011;75162;42.120;21.734;2024-02-16T06:07:17;50.25;;;23.13;;
84897;SDS011;75162;42.120;21.734;2024-02-16T06:09:43;56.47;;;26.90;;
84897;SDS011;75162;42.120;21.734;2024-02-16T06:12:09;50.22;;;23.17;;
84897;SDS011;75162;42.120;21.734;2024-02-16T06:14:37;44.30;;;22.98;;
84897;SDS011;75162;42.120;21.734;2024-02-16T06:17:04;49.00;;;21.80;;
84897;SDS011;75162;42.120;21.734;2024-02-16T06:19:30;45.78;;;20.88;;
84897;SDS011;75162;42.120;21.734;2024-02-16T06:21:56;41.85;;;20.15;;
84897;SDS011;75162;42.120;21.734;2024-02-16T06:24:23;40.78;;;19.02;;
84897;SDS011;75162;42.120;21.734;2024-02-16T06:26:49;44.88;;;18.77;;
84897;SDS011;75162;42.120;21.734;2024-02-16T06:29:19;43.03;;;20.27;;
84897;SDS011;75162;42.120;21.734;2024-02-16T06:31:48;41.70;;;19.38;;
84897;SDS011;75162;42.120;21.734;2024-02-16T06:34:14;45.00;;;20.20;;
84897;SDS011;75162;42.120;21.734;2024-02-16T06:36:41;38.40;;;18.88;;
84897;SDS011;75162;42.120;21.734;2024-02-16T06:39:07;83.00;;;43.05;;
84897;SDS011;75162;42.120;21.734;2024-02-16T06:41:41;76.80;;;39.38;;
84897;SDS011;75162;42.120;21.734;2024-02-16T06:44:09;49.13;;;28.98;;
84897;SDS011;75162;42.120;21.734;2024-02-16T06:46:35;36.10;;;20.52;;
84897;SDS011;75162;42.120;21.734;2024-02-16T06:49:02;39.53;;;19.27;;
84897;SDS011;75162;42.120;21.734;2024-02-16T06:51:28;40.33;;;22.83;;
84897;SDS011;75162;42.120;21.734;2024-02-16T06:53:54;41.97;;;21.35;;
84897;SDS011;75162;42.120;21.734;2024-02-16T06:56:21;36.22;;;18.83;;
84897;SDS011;75162;42.120;21.734;2024-02-16T06:58:47;49.10;;;23.63;;
84897;SDS011;75162;42.120;21.734;2024-02-16T07:01:14;41.75;;;19.98;;
84897;SDS011;75162;42.120;21.734;2024-02-16T07:03:40;38.53;;;20.00;;
84897;SDS011;75162;42.120;21.734;2024-02-16T07:06:07;42.03;;;21.15;;
84897;SDS011;75162;42.120;21.734;2024-02-16T07:08:37;38.95;;;19.80;;
84897;SDS011;75162;42.120;21.734;2024-02-16T07:11:04;41.92;;;21.40;;
84897;SDS011;75162;42.120;21.734;2024-02-16T07:13:34;49.72;;;25.02;;
84897;SDS011;75162;42.120;21.734;2024-02-16T07:16:00;34.22;;;18.95;;
84897;SDS011;75162;42.120;21.734;2024-02-16T07:18:29;37.75;;;20.30;;
84897;SDS011;75162;42.120;21.734;2024-02-16T07:20:55;34.28;;;19.60;;
84897;SDS011;75162;42.120;21.734;2024-02-16T07:23:22;38.85;;;19.80;;
84897;SDS011;75162;42.120;21.734;2024-02-16T07:25:48;33.80;;;19.85;;
84897;SDS011;75162;42.120;21.734;2024-02-16T07:28:14;28.50;;;16.88;;
84897;SDS011;75162;42.120;21.734;2024-02-16T07:30:40;41.00;;;20.80;;
84897;SDS011;75162;42.120;21.734;2024-02-16T07:33:07;33.80;;;17.15;;
84897;SDS011;75162;42.120;21.734;2024-02-16T07:35:33;30.75;;;17.83;;
84897;SDS011;75162;42.120;21.734;2024-02-16T07:38:03;33.38;;;18.08;;
84897;SDS011;75162;42.120;21.734;2024-02-16T07:40:30;35.83;;;19.42;;
84897;SDS011;75162;42.120;21.734;2024-02-16T07:42:56;32.05;;;18.63;;
84897;SDS011;75162;42.120;21.734;2024-02-16T07:45:22;29.20;;;17.70;;
84897;SDS011;75162;42.120;21.734;2024-02-16T07:47:48;30.90;;;17.40;;
84897;SDS011;75162;42.120;21.734;2024-02-16T07:50:18;33.10;;;19.90;;
84897;SDS011;75162;42.120;21.734;2024-02-16T07:52:45;30.90;;;17.80;;
84897;SDS011;75162;42.120;21.734;2024-02-16T07:55:11;37.83;;;20.88;;
84897;SDS011;75162;42.120;21.734;2024-02-16T07:57:37;38.67;;;20.17;;
84897;SDS011;75162;42.120;21.734;2024-02-16T08:00:06;37.33;;;21.38;;
84897;SDS011;75162;42.120;21.734;2024-02-16T08:02:32;40.58;;;24.05;;
84897;SDS011;75162;42.120;21.734;2024-02-16T08:04:58;38.25;;;21.52;;
84897;SDS011;75162;42.120;21.734;2024-02-16T08:07:24;40.15;;;21.10;;
84897;SDS011;75162;42.120;21.734;2024-02-16T08:09:51;38.35;;;22.38;;
84897;SDS011;75162;42.120;21.734;2024-02-16T08:12:17;36.45;;;21.63;;
84897;SDS011;75162;42.120;21.734;2024-02-16T08:14:43;39.30;;;23.27;;
84897;SDS011;75162;42.120;21.734;2024-02-16T08:17:11;43.63;;;23.33;;
84897;SDS011;75162;42.120;21.734;2024-02-16T08:19:37;40.50;;;21.17;;
84897;SDS011;75162;42.120;21.734;2024-02-16T08:22:05;41.28;;;22.10;;
84897;SDS011;75162;42.120;21.734;2024-02-16T08:24:34;40.08;;;21.65;;
84897;SDS011;75162;42.120;21.734;2024-02-16T08:27:01;46.70;;;24.88;;
84897;SDS011;75162;42.120;21.734;2024-02-16T08:29:27;35.75;;;21.35;;
84897;SDS011;75162;42.120;21.734;2024-02-16T08:31:56;32.42;;;19.23;;
84897;SDS011;75162;42.120;21.734;2024-02-16T08:34:22;39.13;;;19.42;;
84897;SDS011;75162;42.120;21.734;2024-02-16T08:36:51;33.22;;;18.85;;
84897;SDS011;75162;42.120;21.734;2024-02-16T08:39:17;37.17;;;18.65;;
84897;SDS011;75162;42.120;21.734;2024-02-16T08:41:50;33.22;;;18.92;;
84897;SDS011;75162;42.120;21.734;2024-02-16T08:44:16;37.72;;;20.20;;
84897;SDS011;75162;42.120;21.734;2024-02-16T08:46:43;38.47;;;20.88;;
84897;SDS011;75162;42.120;21.734;2024-02-16T08:49:11;32.65;;;18.05;;
84897;SDS011;75162;42.120;21.734;2024-02-16T08:51:37;30.20;;;16.85;;
84897;SDS011;75162;42.120;21.734;2024-02-16T08:54:03;33.92;;;19.25;;
84897;SDS011;75162;42.120;21.734;2024-02-16T08:56:30;27.42;;;16.02;;
84897;SDS011;75162;42.120;21.734;2024-02-16T08:58:57;31.20;;;17.70;;
84897;SDS011;75162;42.120;21.734;2024-02-16T09:01:36;33.03;;;18.25;;
84897;SDS011;75162;42.120;21.734;2024-02-16T09:04:03;33.05;;;19.08;;
84897;SDS011;75162;42.120;21.734;2024-02-16T09:06:32;37.50;;;20.50;;
84897;SDS011;75162;42.120;21.734;2024-02-16T09:09:00;36.47;;;21.05;;
84897;SDS011;75162;42.120;21.734;2024-02-16T09:11:26;35.00;;;19.95;;
84897;SDS011;75162;42.120;21.734;2024-02-16T09:13:53;35.40;;;20.02;;
84897;SDS011;75162;42.120;21.734;2024-02-16T09:16:19;36.50;;;20.95;;
84897;SDS011;75162;42.120;21.734;2024-02-16T09:18:45;35.72;;;19.75;;
84897;SDS011;75162;42.120;21.734;2024-02-16T09:21:14;32.45;;;20.55;;
84897;SDS011;75162;42.120;21.734;2024-02-16T09:23:44;33.33;;;18.42;;
84897;SDS011;75162;42.120;21.734;2024-02-16T09:26:16;29.98;;;19.42;;
84897;SDS011;75162;42.120;21.734;2024-02-16T09:28:45;29.77;;;18.95;;
84897;SDS011;75162;42.120;21.734;2024-02-16T09:31:14;41.65;;;19.90;;
84897;SDS011;75162;42.120;21.734;2024-02-16T09:33:41;32.60;;;18.45;;
84897;SDS011;75162;42.120;21.734;2024-02-16T09:36:07;35.03;;;17.95;;
84897;SDS011;75162;42.120;21.734;2024-02-16T09:38:34;32.60;;;18.10;;
84897;SDS011;75162;42.120;21.734;2024-02-16T09:41:01;24.77;;;14.52;;
84897;SDS011;75162;42.120;21.734;2024-02-16T09:43:28;24.65;;;15.18;;
84897;SDS011;75162;42.120;21.734;2024-02-16T09:45:58;21.70;;;13.32;;
84897;SDS011;75162;42.120;21.734;2024-02-16T09:48:28;25.73;;;14.90;;
84897;SDS011;75162;42.120;21.734;2024-02-16T09:50:57;24.67;;;14.35;;
84897;SDS011;75162;42.120;21.734;2024-02-16T09:53:25;23.67;;;13.85;;
84897;SDS011;75162;42.120;21.734;2024-02-16T09:55:52;20.92;;;12.75;;
84897;SDS011;75162;42.120;21.734;2024-02-16T09:58:18;19.70;;;10.52;;
84897;SDS011;75162;42.120;21.734;2024-02-16T10:00:51;13.13;;;9.00;;
84897;SDS011;75162;42.120;21.734;2024-02-16T10:03:27;21.75;;;11.27;;
84897;SDS011;75162;42.120;21.734;2024-02-16T10:06:06;17.52;;;9.63;;
84897;SDS011;75162;42.120;21.734;2024-02-16T10:08:33;12.10;;;7.00;;
84897;SDS011;75162;42.120;21.734;2024-02-16T10:11:00;12.25;;;6.95;;
84897;SDS011;75162;42.120;21.734;2024-02-16T10:13:27;27.00;;;12.75;;
84897;SDS011;75162;42.120;21.734;2024-02-16T10:16:03;19.35;;;11.20;;
84897;SDS011;75162;42.120;21.734;2024-02-16T10:18:29;21.77;;;11.85;;
84897;SDS011;75162;42.120;21.734;2024-02-16T10:20:56;21.27;;;10.52;;
84897;SDS011;75162;42.120;21.734;2024-02-16T10:23:22;10.48;;;6.07;;
84897;SDS011;75162;42.120;21.734;2024-02-16T10:25:48;9.68;;;5.47;;
84897;SDS011;75162;42.120;21.734;2024-02-16T10:28:15;14.25;;;6.45;;
84897;SDS011;75162;42.120;21.734;2024-02-16T10:30:43;21.70;;;11.77;;
84897;SDS011;75162;42.120;21.734;2024-02-16T10:33:10;8.52;;;4.72;;
84897;SDS011;75162;42.120;21.734;2024-02-16T10:35:39;13.18;;;6.18;;
84897;SDS011;75162;42.120;21.734;2024-02-16T10:38:07;8.07;;;4.32;;
84897;SDS011;75162;42.120;21.734;2024-02-16T10:40:37;6.22;;;3.85;;
84897;SDS011;75162;42.120;21.734;2024-02-16T10:43:04;11.68;;;5.38;;
84897;SDS011;75162;42.120;21.734;2024-02-16T10:45:34;6.95;;;4.43;;
84897;SDS011;75162;42.120;21.734;2024-02-16T10:48:01;5.40;;;3.60;;
84897;SDS011;75162;42.120;21.734;2024-02-16T10:50:28;7.93;;;4.32;;
84897;SDS011;75162;42.120;21.734;2024-02-16T10:52:55;7.63;;;3.75;;
84897;SDS011;75162;42.120;21.734;2024-02-16T10:55:21;6.60;;;2.92;;
84897;SDS011;75162;42.120;21.734;2024-02-16T10:57:49;6.15;;;3.30;;
84897;SDS011;75162;42.120;21.734;2024-02-16T11:00:15;4.93;;;3.17;;
84897;SDS011;75162;42.120;21.734;2024-02-16T11:02:58;17.00;;;4.50;;
84897;SDS011;75162;42.120;21.734;2024-02-16T11:05:35;7.78;;;2.70;;
84897;SDS011;75162;42.120;21.734;2024-02-16T11:08:02;4.47;;;3.03;;
84897;SDS011;75162;42.120;21.734;2024-02-16T11:10:29;4.82;;;2.83;;
84897;SDS011;75162;42.120;21.734;2024-02-16T11:13:00;5.75;;;3.60;;
84897;SDS011;75162;42.120;21.734;2024-02-16T11:15:32;7.10;;;3.53;;
84897;SDS011;75162;42.120;21.734;2024-02-16T11:18:02;3.92;;;2.22;;
84897;SDS011;75162;42.120;21.734;2024-02-16T11:20:35;2.72;;;1.90;;
84897;SDS011;75162;42.120;21.734;2024-02-16T11:23:06;8.40;;;3.42;;
84897;SDS011;75162;42.120;21.734;2024-02-16T11:25:32;3.13;;;2.00;;
84897;SDS011;75162;42.120;21.734;2024-02-16T11:27:59;6.00;;;2.97;;
84897;SDS011;75162;42.120;21.734;2024-02-16T11:30:27;5.57;;;2.55;;
84897;SDS011;75162;42.120;21.734;2024-02-16T11:32:53;3.78;;;2.00;;
84897;SDS011;75162;42.120;21.734;2024-02-16T11:35:20;8.43;;;5.30;;
84897;SDS011;75162;42.120;21.734;2024-02-16T11:37:47;7.75;;;3.88;;
84897;SDS011;75162;42.120;21.734;2024-02-16T11:40:13;27.30;;;15.05;;
84897;SDS011;75162;42.120;21.734;2024-02-16T11:42:39;6.85;;;3.85;;
84897;SDS011;75162;42.120;21.734;2024-02-16T11:45:10;9.80;;;4.78;;
84897;SDS011;75162;42.120;21.734;2024-02-16T11:47:49;16.75;;;9.55;;
84897;SDS011;75162;42.120;21.734;2024-02-16T11:50:15;15.05;;;8.27;;
84897;SDS011;75162;42.120;21.734;2024-02-16T11:52:44;3.03;;;1.80;;
84897;SDS011;75162;42.120;21.734;2024-02-16T11:55:12;4.10;;;2.72;;
84897;SDS011;75162;42.120;21.734;2024-02-16T11:57:40;5.40;;;3.60;;
84897;SDS011;75162;42.120;21.734;2024-02-16T12:00:06;2.45;;;1.63;;
84897;SDS011;75162;42.120;21.734;2024-02-16T12:02:35;3.28;;;2.13;;
84897;SDS011;75162;42.120;21.734;2024-02-16T12:05:02;2.50;;;1.50;;
84897;SDS011;75162;42.120;21.734;2024-02-16T12:07:28;2.80;;;1.85;;
84897;SDS011;75162;42.120;21.734;2024-02-16T12:09:58;2.95;;;1.95;;
84897;SDS011;75162;42.120;21.734;2024-02-16T12:12:25;9.65;;;2.22;;
84897;SDS011;75162;42.120;21.734;2024-02-16T12:14:52;4.38;;;1.90;;
84897;SDS011;75162;42.120;21.734;2024-02-16T12:17:18;5.57;;;2.00;;
84897;SDS011;75162;42.120;21.734;2024-02-16T12:19:47;5.88;;;1.90;;
84897;SDS011;75162;42.120;21.734;2024-02-16T12:22:19;22.23;;;11.40;;
84897;SDS011;75162;42.120;21.734;2024-02-16T12:24:47;5.22;;;2.63;;
84897;SDS011;75162;42.120;21.734;2024-02-16T12:27:13;5.68;;;3.05;;
84897;SDS011;75162;42.120;21.734;2024-02-16T12:29:42;7.22;;;3.40;;
84897;SDS011;75162;42.120;21.734;2024-02-16T12:32:09;4.03;;;2.30;;
84897;SDS011;75162;42.120;21.734;2024-02-16T12:34:35;10.82;;;3.10;;
84897;SDS011;75162;42.120;21.734;2024-02-16T12:37:07;5.95;;;2.47;;
84897;SDS011;75162;42.120;21.734;2024-02-16T12:39:36;6.15;;;3.03;;
84897;SDS011;75162;42.120;21.734;2024-02-16T12:42:03;5.72;;;2.60;;
84897;SDS011;75162;42.120;21.734;2024-02-16T12:44:29;3.58;;;2.75;;
84897;SDS011;75162;42.120;21.734;2024-02-16T12:47:11;9.60;;;3.40;;
84897;SDS011;75162;42.120;21.734;2024-02-16T12:49:37;7.43;;;3.30;;
84897;SDS011;75162;42.120;21.734;2024-02-16T12:52:03;11.38;;;6.10;;
84897;SDS011;75162;42.120;21.734;2024-02-16T12:54:33;5.35;;;3.35;;
84897;SDS011;75162;42.120;21.734;2024-02-16T12:56:59;6.50;;;3.78;;
84897;SDS011;75162;42.120;21.734;2024-02-16T12:59:26;5.95;;;3.83;;
84897;SDS011;75162;42.120;21.734;2024-02-16T13:01:52;6.38;;;3.97;;
84897;SDS011;75162;42.120;21.734;2024-02-16T13:04:18;6.72;;;2.95;;
84897;SDS011;75162;42.120;21.734;2024-02-16T13:06:48;4.30;;;2.40;;
84897;SDS011;75162;42.120;21.734;2024-02-16T13:09:14;6.38;;;3.22;;
84897;SDS011;75162;42.120;21.734;2024-02-16T13:11:40;9.02;;;4.07;;
84897;SDS011;75162;42.120;21.734;2024-02-16T13:14:07;9.27;;;5.57;;
84897;SDS011;75162;42.120;21.734;2024-02-16T13:16:33;6.50;;;3.58;;
84897;SDS011;75162;42.120;21.734;2024-02-16T13:18:59;4.72;;;2.72;;
84897;SDS011;75162;42.120;21.734;2024-02-16T13:21:25;6.93;;;3.35;;
84897;SDS011;75162;42.120;21.734;2024-02-16T13:23:52;7.68;;;3.13;;
84897;SDS011;75162;42.120;21.734;2024-02-16T13:26:18;5.10;;;3.30;;
84897;SDS011;75162;42.120;21.734;2024-02-16T13:28:44;12.02;;;5.60;;
84897;SDS011;75162;42.120;21.734;2024-02-16T13:31:10;9.10;;;4.93;;
84897;SDS011;75162;42.120;21.734;2024-02-16T13:33:37;25.92;;;13.63;;
84897;SDS011;75162;42.120;21.734;2024-02-16T13:36:03;14.68;;;7.95;;
84897;SDS011;75162;42.120;21.734;2024-02-16T13:38:30;11.15;;;5.65;;
84897;SDS011;75162;42.120;21.734;2024-02-16T13:40:56;6.90;;;3.35;;
84897;SDS011;75162;42.120;21.734;2024-02-16T13:43:22;6.05;;;3.78;;
84897;SDS011;75162;42.120;21.734;2024-02-16T13:45:49;8.00;;;4.00;;
84897;SDS011;75162;42.120;21.734;2024-02-16T13:48:16;10.48;;;4.75;;
84897;SDS011;75162;42.120;21.734;2024-02-16T13:50:48;7.55;;;4.00;;
84897;SDS011;75162;42.120;21.734;2024-02-16T13:53:14;11.40;;;5.47;;
84897;SDS011;75162;42.120;21.734;2024-02-16T13:55:41;8.90;;;5.10;;
84897;SDS011;75162;42.120;21.734;2024-02-16T13:58:08;11.75;;;6.75;;
84897;SDS011;75162;42.120;21.734;2024-02-16T14:00:35;11.00;;;5.25;;
84897;SDS011;75162;42.120;21.734;2024-02-16T14:03:01;11.05;;;5.60;;
84897;SDS011;75162;42.120;21.734;2024-02-16T14:05:27;9.25;;;4.63;;
84897;SDS011;75162;42.120;21.734;2024-02-16T14:07:57;24.02;;;10.88;;
84897;SDS011;75162;42.120;21.734;2024-02-16T14:10:26;22.38;;;11.50;;
84897;SDS011;75162;42.120;21.734;2024-02-16T14:12:54;13.23;;;6.68;;
84897;SDS011;75162;42.120;21.734;2024-02-16T14:15:33;14.25;;;7.07;;
84897;SDS011;75162;42.120;21.734;2024-02-16T14:18:20;10.43;;;5.32;;